sensor_id;sensor_type;location;lat;lon;timestamp;P1;durP1;ratioP1;P2;durP2;ratioP2
71963;SDS011;59834;52.124;5.422;2023-05-19T00:00:58;3.55;;;0.90;;
71963;SDS011;59834;52.124;5.422;2023-05-19T00:03:28;6.20;;;1.40;;
71963;SDS011;59834;52.124;5.422;2023-05-19T00:05:57;6.20;;;1.30;;
71963;SDS011;59834;52.124;5.422;2023-05-19T00:08:25;7.20;;;1.30;;
71963;SDS011;59834;52.124;5.422;2023-05-19T00:10:57;6.70;;;1.50;;
71963;SDS011;59834;52.124;5.422;2023-05-19T00:13:27;5.65;;;0.90;;
71963;SDS011;59834;52.124;5.422;2023-05-19T00:15:55;2.53;;;1.15;;
71963;SDS011;59834;52.124;5.422;2023-05-19T00:18:23;5.47;;;1.20;;
71963;SDS011;59834;52.124;5.422;2023-05-19T00:20:51;6.07;;;1.20;;
71963;SDS011;59834;52.124;5.422;2023-05-19T00:23:18;5.18;;;1.65;;
71963;SDS011;59834;52.124;5.422;2023-05-19T00:25:53;4.72;;;0.98;;
71963;SDS011;59834;52.124;5.422;2023-05-19T00:28:22;3.67;;;1.13;;
71963;SDS011;59834;52.124;5.422;2023-05-19T00:30:51;6.70;;;1.17;;
71963;SDS011;59834;52.124;5.422;2023-05-19T00:33:18;4.53;;;1.35;;
71963;SDS011;59834;52.124;5.422;2023-05-19T00:35:44;8.43;;;1.10;;
71963;SDS011;59834;52.124;5.422;2023-05-19T00:38:12;4.55;;;0.93;;
71963;SDS011;59834;52.124;5.422;2023-05-19T00:40:41;3.47;;;1.60;;
71963;SDS011;59834;52.124;5.422;2023-05-19T00:43:08;3.30;;;0.90;;
71963;SDS011;59834;52.124;5.422;2023-05-19T00:45:35;12.90;;;1.65;;
71963;SDS011;59834;52.124;5.422;2023-05-19T00:48:01;4.72;;;1.30;;
71963;SDS011;59834;52.124;5.422;2023-05-19T00:50:28;3.08;;;0.90;;
71963;SDS011;59834;52.124;5.422;2023-05-19T00:52:56;4.75;;;1.10;;
71963;SDS011;59834;52.124;5.422;2023-05-19T00:55:28;5.13;;;1.20;;
71963;SDS011;59834;52.124;5.422;2023-05-19T00:57:56;6.95;;;1.10;;
71963;SDS011;59834;52.124;5.422;2023-05-19T01:00:23;6.15;;;1.30;;
71963;SDS011;59834;52.124;5.422;2023-05-19T01:02:53;8.25;;;1.30;;
71963;SDS011;59834;52.124;5.422;2023-05-19T01:05:22;6.82;;;1.17;;
71963;SDS011;59834;52.124;5.422;2023-05-19T01:07:49;3.60;;;1.40;;
71963;SDS011;59834;52.124;5.422;2023-05-19T01:10:19;3.00;;;1.40;;
71963;SDS011;59834;52.124;5.422;2023-05-19T01:12:47;5.65;;;1.08;;
71963;SDS011;59834;52.124;5.422;2023-05-19T01:15:16;5.85;;;1.30;;
71963;SDS011;59834;52.124;5.422;2023-05-19T01:17:45;8.90;;;1.35;;
71963;SDS011;59834;52.124;5.422;2023-05-19T01:20:23;6.50;;;1.30;;
71963;SDS011;59834;52.124;5.422;2023-05-19T01:25:37;4.30;;;1.52;;
71963;SDS011;59834;52.124;5.422;2023-05-19T01:31:26;4.40;;;1.13;;
71963;SDS011;59834;52.124;5.422;2023-05-19T01:33:54;12.30;;;1.67;;
71963;SDS011;59834;52.124;5.422;2023-05-19T01:36:22;2.97;;;1.10;;
71963;SDS011;59834;52.124;5.422;2023-05-19T01:38:55;7.85;;;1.33;;
71963;SDS011;59834;52.124;5.422;2023-05-19T01:41:25;5.93;;;1.15;;
71963;SDS011;59834;52.124;5.422;2023-05-19T01:43:53;7.97;;;1.48;;
71963;SDS011;59834;52.124;5.422;2023-05-19T01:46:22;5.07;;;1.13;;
71963;SDS011;59834;52.124;5.422;2023-05-19T01:48:52;9.80;;;1.52;;
71963;SDS011;59834;52.124;5.422;2023-05-19T01:51:21;7.30;;;1.52;;
71963;SDS011;59834;52.124;5.422;2023-05-19T01:53:48;3.33;;;1.33;;
71963;SDS011;59834;52.124;5.422;2023-05-19T01:56:19;5.30;;;1.35;;
71963;SDS011;59834;52.124;5.422;2023-05-19T01:59:02;7.67;;;1.80;;
71963;SDS011;59834;52.124;5.422;2023-05-19T02:01:55;4.80;;;1.48;;
71963;SDS011;59834;52.124;5.422;2023-05-19T02:04:42;4.78;;;1.15;;
71963;SDS011;59834;52.124;5.422;2023-05-19T02:10:05;6.88;;;1.48;;
71963;SDS011;59834;52.124;5.422;2023-05-19T02:12:37;10.67;;;1.70;;
71963;SDS011;59834;52.124;5.422;2023-05-19T02:15:10;4.15;;;1.70;;
71963;SDS011;59834;52.124;5.422;2023-05-19T02:17:43;4.90;;;1.27;;
71963;SDS011;59834;52.124;5.422;2023-05-19T02:20:17;5.20;;;1.17;;
71963;SDS011;59834;52.124;5.422;2023-05-19T02:22:45;4.50;;;0.95;;
71963;SDS011;59834;52.124;5.422;2023-05-19T02:25:15;7.80;;;2.43;;
71963;SDS011;59834;52.124;5.422;2023-05-19T02:27:42;7.90;;;1.58;;
71963;SDS011;59834;52.124;5.422;2023-05-19T02:30:09;6.85;;;1.40;;
71963;SDS011;59834;52.124;5.422;2023-05-19T02:32:39;6.07;;;1.70;;
71963;SDS011;59834;52.124;5.422;2023-05-19T02:35:07;4.28;;;1.20;;
71963;SDS011;59834;52.124;5.422;2023-05-19T02:37:35;7.10;;;1.90;;
71963;SDS011;59834;52.124;5.422;2023-05-19T02:40:06;5.97;;;1.90;;
71963;SDS011;59834;52.124;5.422;2023-05-19T02:42:34;5.05;;;2.08;;
71963;SDS011;59834;52.124;5.422;2023-05-19T02:45:08;6.90;;;1.45;;
71963;SDS011;59834;52.124;5.422;2023-05-19T02:47:36;7.22;;;1.83;;
71963;SDS011;59834;52.124;5.422;2023-05-19T02:50:04;5.90;;;1.63;;
71963;SDS011;59834;52.124;5.422;2023-05-19T02:52:31;5.55;;;1.15;;
71963;SDS011;59834;52.124;5.422;2023-05-19T02:54:58;4.35;;;1.98;;
71963;SDS011;59834;52.124;5.422;2023-05-19T02:57:25;2.65;;;1.40;;
71963;SDS011;59834;52.124;5.422;2023-05-19T02:59:52;4.53;;;1.33;;
71963;SDS011;59834;52.124;5.422;2023-05-19T03:02:20;4.00;;;1.30;;
71963;SDS011;59834;52.124;5.422;2023-05-19T03:04:47;4.70;;;1.95;;
71963;SDS011;59834;52.124;5.422;2023-05-19T03:07:17;6.30;;;1.42;;
71963;SDS011;59834;52.124;5.422;2023-05-19T03:09:50;3.70;;;1.55;;
71963;SDS011;59834;52.124;5.422;2023-05-19T03:12:17;10.68;;;1.92;;
71963;SDS011;59834;52.124;5.422;2023-05-19T03:14:47;6.23;;;1.13;;
71963;SDS011;59834;52.124;5.422;2023-05-19T03:17:15;6.72;;;1.75;;
71963;SDS011;59834;52.124;5.422;2023-05-19T03:19:42;9.90;;;2.17;;
71963;SDS011;59834;52.124;5.422;2023-05-19T03:22:10;6.60;;;1.80;;
71963;SDS011;59834;52.124;5.422;2023-05-19T03:24:36;5.45;;;2.00;;
71963;SDS011;59834;52.124;5.422;2023-05-19T03:27:03;7.53;;;2.30;;
71963;SDS011;59834;52.124;5.422;2023-05-19T03:29:32;9.95;;;2.38;;
71963;SDS011;59834;52.124;5.422;2023-05-19T03:31:58;5.78;;;1.95;;
71963;SDS011;59834;52.124;5.422;2023-05-19T03:34:25;7.70;;;1.88;;
71963;SDS011;59834;52.124;5.422;2023-05-19T03:36:52;8.82;;;2.25;;
71963;SDS011;59834;52.124;5.422;2023-05-19T03:39:19;9.20;;;1.90;;
71963;SDS011;59834;52.124;5.422;2023-05-19T03:41:54;5.22;;;1.92;;
71963;SDS011;59834;52.124;5.422;2023-05-19T03:44:23;6.50;;;2.38;;
71963;SDS011;59834;52.124;5.422;2023-05-19T03:46:51;10.15;;;1.85;;
71963;SDS011;59834;52.124;5.422;2023-05-19T03:49:17;7.30;;;2.10;;
71963;SDS011;59834;52.124;5.422;2023-05-19T03:51:45;9.37;;;2.27;;
71963;SDS011;59834;52.124;5.422;2023-05-19T03:54:12;5.30;;;1.33;;
71963;SDS011;59834;52.124;5.422;2023-05-19T03:56:39;6.60;;;1.85;;
71963;SDS011;59834;52.124;5.422;2023-05-19T03:59:07;6.03;;;1.75;;
71963;SDS011;59834;52.124;5.422;2023-05-19T04:01:36;6.32;;;2.03;;
71963;SDS011;59834;52.124;5.422;2023-05-19T04:04:03;6.80;;;2.30;;
71963;SDS011;59834;52.124;5.422;2023-05-19T04:06:30;5.15;;;2.08;;
71963;SDS011;59834;52.124;5.422;2023-05-19T04:08:57;12.18;;;2.20;;
71963;SDS011;59834;52.124;5.422;2023-05-19T04:11:23;10.25;;;2.08;;
71963;SDS011;59834;52.124;5.422;2023-05-19T04:13:50;6.63;;;2.05;;
71963;SDS011;59834;52.124;5.422;2023-05-19T04:16:17;7.53;;;2.07;;
71963;SDS011;59834;52.124;5.422;2023-05-19T04:18:43;8.43;;;2.20;;
71963;SDS011;59834;52.124;5.422;2023-05-19T04:21:11;8.50;;;2.33;;
71963;SDS011;59834;52.124;5.422;2023-05-19T04:23:40;9.02;;;2.45;;
71963;SDS011;59834;52.124;5.422;2023-05-19T04:26:07;5.68;;;2.33;;
71963;SDS011;59834;52.124;5.422;2023-05-19T04:28:34;8.40;;;2.50;;
71963;SDS011;59834;52.124;5.422;2023-05-19T04:31:04;6.18;;;2.30;;
71963;SDS011;59834;52.124;5.422;2023-05-19T04:33:38;10.07;;;2.40;;
71963;SDS011;59834;52.124;5.422;2023-05-19T04:36:08;10.63;;;2.25;;
71963;SDS011;59834;52.124;5.422;2023-05-19T04:38:36;8.43;;;2.25;;
71963;SDS011;59834;52.124;5.422;2023-05-19T04:41:05;8.67;;;2.03;;
71963;SDS011;59834;52.124;5.422;2023-05-19T04:43:35;4.43;;;1.90;;
71963;SDS011;59834;52.124;5.422;2023-05-19T04:46:07;4.20;;;1.95;;
71963;SDS011;59834;52.124;5.422;2023-05-19T04:48:39;4.93;;;2.05;;
71963;SDS011;59834;52.124;5.422;2023-05-19T04:51:08;6.65;;;2.42;;
71963;SDS011;59834;52.124;5.422;2023-05-19T04:53:37;9.37;;;2.27;;
71963;SDS011;59834;52.124;5.422;2023-05-19T04:56:05;4.57;;;2.35;;
71963;SDS011;59834;52.124;5.422;2023-05-19T04:58:32;4.78;;;2.40;;
71963;SDS011;59834;52.124;5.422;2023-05-19T05:01:00;8.35;;;2.00;;
71963;SDS011;59834;52.124;5.422;2023-05-19T05:03:27;4.40;;;1.80;;
71963;SDS011;59834;52.124;5.422;2023-05-19T05:05:53;5.90;;;2.30;;
71963;SDS011;59834;52.124;5.422;2023-05-19T05:08:24;5.90;;;2.30;;
71963;SDS011;59834;52.124;5.422;2023-05-19T05:10:51;7.45;;;2.67;;
71963;SDS011;59834;52.124;5.422;2023-05-19T05:13:20;6.00;;;2.38;;
71963;SDS011;59834;52.124;5.422;2023-05-19T05:15:51;5.53;;;2.20;;
71963;SDS011;59834;52.124;5.422;2023-05-19T05:18:21;8.38;;;2.03;;
71963;SDS011;59834;52.124;5.422;2023-05-19T05:20:48;4.30;;;2.47;;
71963;SDS011;59834;52.124;5.422;2023-05-19T05:23:16;6.03;;;2.20;;
71963;SDS011;59834;52.124;5.422;2023-05-19T05:25:45;7.07;;;2.40;;
71963;SDS011;59834;52.124;5.422;2023-05-19T05:28:15;5.45;;;2.35;;
71963;SDS011;59834;52.124;5.422;2023-05-19T05:30:42;7.75;;;2.20;;
71963;SDS011;59834;52.124;5.422;2023-05-19T05:33:10;5.87;;;2.40;;
71963;SDS011;59834;52.124;5.422;2023-05-19T05:35:39;4.88;;;2.08;;
71963;SDS011;59834;52.124;5.422;2023-05-19T05:38:11;7.32;;;2.78;;
71963;SDS011;59834;52.124;5.422;2023-05-19T05:40:39;5.47;;;2.17;;
71963;SDS011;59834;52.124;5.422;2023-05-19T05:43:06;7.90;;;3.20;;
71963;SDS011;59834;52.124;5.422;2023-05-19T05:45:33;7.83;;;3.17;;
71963;SDS011;59834;52.124;5.422;2023-05-19T05:48:00;8.38;;;2.10;;
71963;SDS011;59834;52.124;5.422;2023-05-19T05:50:27;6.50;;;2.97;;
71963;SDS011;59834;52.124;5.422;2023-05-19T05:52:54;9.63;;;2.70;;
71963;SDS011;59834;52.124;5.422;2023-05-19T05:55:23;5.30;;;2.53;;
71963;SDS011;59834;52.124;5.422;2023-05-19T05:57:50;5.53;;;2.60;;
71963;SDS011;59834;52.124;5.422;2023-05-19T06:00:17;5.65;;;2.50;;
71963;SDS011;59834;52.124;5.422;2023-05-19T06:02:47;10.10;;;2.75;;
71963;SDS011;59834;52.124;5.422;2023-05-19T06:05:16;9.05;;;2.70;;
71963;SDS011;59834;52.124;5.422;2023-05-19T06:07:46;7.50;;;2.58;;
71963;SDS011;59834;52.124;5.422;2023-05-19T06:10:12;5.83;;;2.70;;
71963;SDS011;59834;52.124;5.422;2023-05-19T06:12:39;6.65;;;2.97;;
71963;SDS011;59834;52.124;5.422;2023-05-19T06:15:09;7.63;;;3.00;;
71963;SDS011;59834;52.124;5.422;2023-05-19T06:17:39;5.20;;;3.10;;
71963;SDS011;59834;52.124;5.422;2023-05-19T06:20:06;5.85;;;2.45;;
71963;SDS011;59834;52.124;5.422;2023-05-19T06:22:36;10.53;;;3.03;;
71963;SDS011;59834;52.124;5.422;2023-05-19T06:25:03;7.22;;;2.92;;
71963;SDS011;59834;52.124;5.422;2023-05-19T06:27:31;12.23;;;3.20;;
71963;SDS011;59834;52.124;5.422;2023-05-19T06:30:01;4.70;;;3.10;;
71963;SDS011;59834;52.124;5.422;2023-05-19T06:32:31;5.35;;;3.45;;
71963;SDS011;59834;52.124;5.422;2023-05-19T06:34:58;6.80;;;3.23;;
71963;SDS011;59834;52.124;5.422;2023-05-19T06:37:25;5.90;;;2.70;;
71963;SDS011;59834;52.124;5.422;2023-05-19T06:39:52;4.38;;;2.55;;
71963;SDS011;59834;52.124;5.422;2023-05-19T06:42:19;6.07;;;2.47;;
71963;SDS011;59834;52.124;5.422;2023-05-19T06:44:51;6.85;;;2.35;;
71963;SDS011;59834;52.124;5.422;2023-05-19T06:47:18;6.00;;;2.70;;
71963;SDS011;59834;52.124;5.422;2023-05-19T06:49:46;9.75;;;2.85;;
71963;SDS011;59834;52.124;5.422;2023-05-19T06:52:21;6.43;;;2.80;;
71963;SDS011;59834;52.124;5.422;2023-05-19T06:54:48;6.88;;;2.88;;
71963;SDS011;59834;52.124;5.422;2023-05-19T06:57:15;11.50;;;3.00;;
71963;SDS011;59834;52.124;5.422;2023-05-19T06:59:42;11.13;;;3.17;;
71963;SDS011;59834;52.124;5.422;2023-05-19T07:02:11;7.57;;;2.78;;
71963;SDS011;59834;52.124;5.422;2023-05-19T07:04:38;4.70;;;2.92;;
71963;SDS011;59834;52.124;5.422;2023-05-19T07:07:05;8.05;;;2.80;;
71963;SDS011;59834;52.124;5.422;2023-05-19T07:09:32;6.20;;;2.35;;
71963;SDS011;59834;52.124;5.422;2023-05-19T07:11:59;7.47;;;2.57;;
71963;SDS011;59834;52.124;5.422;2023-05-19T07:14:26;5.18;;;2.30;;
71963;SDS011;59834;52.124;5.422;2023-05-19T07:16:53;6.07;;;1.83;;
71963;SDS011;59834;52.124;5.422;2023-05-19T07:19:22;8.82;;;2.38;;
71963;SDS011;59834;52.124;5.422;2023-05-19T07:21:51;8.02;;;2.58;;
71963;SDS011;59834;52.124;5.422;2023-05-19T07:24:18;5.20;;;2.47;;
71963;SDS011;59834;52.124;5.422;2023-05-19T07:26:53;7.15;;;1.73;;
71963;SDS011;59834;52.124;5.422;2023-05-19T07:29:20;5.28;;;1.75;;
71963;SDS011;59834;52.124;5.422;2023-05-19T07:31:46;4.38;;;2.08;;
71963;SDS011;59834;52.124;5.422;2023-05-19T07:34:15;4.47;;;1.80;;
71963;SDS011;59834;52.124;5.422;2023-05-19T07:36:42;7.40;;;1.67;;
71963;SDS011;59834;52.124;5.422;2023-05-19T07:39:11;7.60;;;2.20;;
71963;SDS011;59834;52.124;5.422;2023-05-19T07:41:38;6.32;;;2.22;;
71963;SDS011;59834;52.124;5.422;2023-05-19T07:44:09;3.75;;;1.75;;
71963;SDS011;59834;52.124;5.422;2023-05-19T07:46:36;5.03;;;1.20;;
71963;SDS011;59834;52.124;5.422;2023-05-19T07:49:03;5.30;;;1.47;;
71963;SDS011;59834;52.124;5.422;2023-05-19T07:51:30;4.15;;;1.48;;
71963;SDS011;59834;52.124;5.422;2023-05-19T07:53:57;5.32;;;1.40;;
71963;SDS011;59834;52.124;5.422;2023-05-19T07:56:23;4.30;;;1.02;;
71963;SDS011;59834;52.124;5.422;2023-05-19T07:58:50;5.85;;;1.50;;
71963;SDS011;59834;52.124;5.422;2023-05-19T08:01:17;5.60;;;1.47;;
71963;SDS011;59834;52.124;5.422;2023-05-19T08:03:43;8.40;;;1.30;;
71963;SDS011;59834;52.124;5.422;2023-05-19T08:06:11;3.60;;;1.20;;
71963;SDS011;59834;52.124;5.422;2023-05-19T08:08:39;3.17;;;0.80;;
71963;SDS011;59834;52.124;5.422;2023-05-19T08:11:07;6.35;;;1.08;;
71963;SDS011;59834;52.124;5.422;2023-05-19T08:13:36;4.47;;;0.90;;
71963;SDS011;59834;52.124;5.422;2023-05-19T08:16:03;5.20;;;0.90;;
71963;SDS011;59834;52.124;5.422;2023-05-19T08:18:31;6.18;;;0.63;;
71963;SDS011;59834;52.124;5.422;2023-05-19T08:20:58;8.20;;;0.65;;
71963;SDS011;59834;52.124;5.422;2023-05-19T08:23:26;4.45;;;0.60;;
71963;SDS011;59834;52.124;5.422;2023-05-19T08:25:55;6.80;;;0.70;;
71963;SDS011;59834;52.124;5.422;2023-05-19T08:28:22;2.42;;;0.47;;
71963;SDS011;59834;52.124;5.422;2023-05-19T08:30:50;5.68;;;1.27;;
71963;SDS011;59834;52.124;5.422;2023-05-19T08:33:21;5.00;;;0.47;;
71963;SDS011;59834;52.124;5.422;2023-05-19T08:35:49;5.28;;;1.10;;
71963;SDS011;59834;52.124;5.422;2023-05-19T08:38:16;4.30;;;0.60;;
71963;SDS011;59834;52.124;5.422;2023-05-19T08:40:44;3.33;;;0.73;;
71963;SDS011;59834;52.124;5.422;2023-05-19T08:43:15;2.80;;;0.45;;
71963;SDS011;59834;52.124;5.422;2023-05-19T08:45:44;6.95;;;0.70;;
71963;SDS011;59834;52.124;5.422;2023-05-19T08:48:15;2.55;;;0.38;;
71963;SDS011;59834;52.124;5.422;2023-05-19T08:50:49;6.27;;;0.50;;
71963;SDS011;59834;52.124;5.422;2023-05-19T08:53:24;5.30;;;0.82;;
71963;SDS011;59834;52.124;5.422;2023-05-19T08:56:04;9.93;;;0.52;;
71963;SDS011;59834;52.124;5.422;2023-05-19T08:58:40;5.50;;;0.70;;
71963;SDS011;59834;52.124;5.422;2023-05-19T09:01:21;3.13;;;0.60;;
71963;SDS011;59834;52.124;5.422;2023-05-19T09:06:42;7.20;;;0.65;;
71963;SDS011;59834;52.124;5.422;2023-05-19T09:09:12;7.07;;;0.57;;
71963;SDS011;59834;52.124;5.422;2023-05-19T09:11:43;3.10;;;0.30;;
71963;SDS011;59834;52.124;5.422;2023-05-19T09:14:13;4.47;;;0.65;;
71963;SDS011;59834;52.124;5.422;2023-05-19T09:16:41;4.17;;;0.50;;
71963;SDS011;59834;52.124;5.422;2023-05-19T09:19:17;2.35;;;0.63;;
71963;SDS011;59834;52.124;5.422;2023-05-19T09:21:56;6.82;;;0.85;;
71963;SDS011;59834;52.124;5.422;2023-05-19T09:24:37;4.65;;;0.60;;
71963;SDS011;59834;52.124;5.422;2023-05-19T09:27:05;3.47;;;0.43;;
71963;SDS011;59834;52.124;5.422;2023-05-19T09:29:32;6.20;;;0.87;;
71963;SDS011;59834;52.124;5.422;2023-05-19T09:32:00;4.43;;;0.50;;
71963;SDS011;59834;52.124;5.422;2023-05-19T09:34:31;3.67;;;0.75;;
71963;SDS011;59834;52.124;5.422;2023-05-19T09:37:00;5.63;;;1.00;;
71963;SDS011;59834;52.124;5.422;2023-05-19T09:39:29;5.22;;;0.88;;
71963;SDS011;59834;52.124;5.422;2023-05-19T09:41:55;6.13;;;0.93;;
71963;SDS011;59834;52.124;5.422;2023-05-19T09:44:25;4.00;;;0.65;;
71963;SDS011;59834;52.124;5.422;2023-05-19T09:46:55;5.75;;;0.70;;
71963;SDS011;59834;52.124;5.422;2023-05-19T09:49:25;3.22;;;0.63;;
71963;SDS011;59834;52.124;5.422;2023-05-19T09:52:01;1.45;;;0.30;;
71963;SDS011;59834;52.124;5.422;2023-05-19T09:54:29;5.70;;;0.60;;
71963;SDS011;59834;52.124;5.422;2023-05-19T09:57:01;4.75;;;0.80;;
71963;SDS011;59834;52.124;5.422;2023-05-19T09:59:31;4.13;;;0.60;;
71963;SDS011;59834;52.124;5.422;2023-05-19T10:01:59;2.45;;;0.60;;
71963;SDS011;59834;52.124;5.422;2023-05-19T10:04:28;5.22;;;0.60;;
71963;SDS011;59834;52.124;5.422;2023-05-19T10:06:56;5.07;;;0.70;;
71963;SDS011;59834;52.124;5.422;2023-05-19T10:09:31;4.20;;;0.60;;
71963;SDS011;59834;52.124;5.422;2023-05-19T10:12:02;6.95;;;1.00;;
71963;SDS011;59834;52.124;5.422;2023-05-19T10:14:32;5.97;;;1.10;;
71963;SDS011;59834;52.124;5.422;2023-05-19T10:16:58;6.18;;;0.65;;
71963;SDS011;59834;52.124;5.422;2023-05-19T10:19:26;5.20;;;0.80;;
71963;SDS011;59834;52.124;5.422;2023-05-19T10:21:54;3.38;;;0.77;;
71963;SDS011;59834;52.124;5.422;2023-05-19T10:24:21;5.22;;;0.60;;
71963;SDS011;59834;52.124;5.422;2023-05-19T10:29:24;7.07;;;1.33;;
71963;SDS011;59834;52.124;5.422;2023-05-19T10:31:59;5.20;;;0.73;;
71963;SDS011;59834;52.124;5.422;2023-05-19T10:37:23;4.03;;;0.60;;
71963;SDS011;59834;52.124;5.422;2023-05-19T10:40:26;2.75;;;0.50;;
71963;SDS011;59834;52.124;5.422;2023-05-19T10:43:20;2.33;;;0.60;;
71963;SDS011;59834;52.124;5.422;2023-05-19T10:45:59;3.03;;;0.70;;
71963;SDS011;59834;52.124;5.422;2023-05-19T10:48:27;3.40;;;0.57;;
71963;SDS011;59834;52.124;5.422;2023-05-19T10:51:06;8.85;;;1.30;;
71963;SDS011;59834;52.124;5.422;2023-05-19T10:53:41;5.70;;;0.90;;
71963;SDS011;59834;52.124;5.422;2023-05-19T10:56:29;4.00;;;0.98;;
71963;SDS011;59834;52.124;5.422;2023-05-19T10:59:02;4.60;;;0.80;;
71963;SDS011;59834;52.124;5.422;2023-05-19T11:01:32;3.78;;;0.90;;
71963;SDS011;59834;52.124;5.422;2023-05-19T11:04:03;2.40;;;0.75;;
71963;SDS011;59834;52.124;5.422;2023-05-19T11:06:35;1.90;;;0.65;;
71963;SDS011;59834;52.124;5.422;2023-05-19T11:09:13;2.92;;;0.70;;
71963;SDS011;59834;52.124;5.422;2023-05-19T11:11:45;3.30;;;0.47;;
71963;SDS011;59834;52.124;5.422;2023-05-19T11:14:20;2.40;;;0.40;;
71963;SDS011;59834;52.124;5.422;2023-05-19T11:16:49;2.97;;;0.50;;
71963;SDS011;59834;52.124;5.422;2023-05-19T11:19:24;2.83;;;0.45;;
71963;SDS011;59834;52.124;5.422;2023-05-19T11:21:55;3.95;;;0.93;;
71963;SDS011;59834;52.124;5.422;2023-05-19T11:24:36;2.50;;;0.60;;
71963;SDS011;59834;52.124;5.422;2023-05-19T11:27:19;5.88;;;0.52;;
71963;SDS011;59834;52.124;5.422;2023-05-19T11:29:49;3.30;;;0.57;;
71963;SDS011;59834;52.124;5.422;2023-05-19T11:32:19;2.40;;;0.40;;
71963;SDS011;59834;52.124;5.422;2023-05-19T11:34:50;3.50;;;1.35;;
71963;SDS011;59834;52.124;5.422;2023-05-19T11:37:19;1.55;;;0.50;;
71963;SDS011;59834;52.124;5.422;2023-05-19T11:39:46;5.13;;;0.97;;
71963;SDS011;59834;52.124;5.422;2023-05-19T11:42:13;3.63;;;0.65;;
71963;SDS011;59834;52.124;5.422;2023-05-19T11:44:40;3.72;;;0.70;;
71963;SDS011;59834;52.124;5.422;2023-05-19T11:47:06;4.00;;;0.90;;
71963;SDS011;59834;52.124;5.422;2023-05-19T11:49:35;3.00;;;0.60;;
71963;SDS011;59834;52.124;5.422;2023-05-19T11:52:02;2.73;;;0.70;;
71963;SDS011;59834;52.124;5.422;2023-05-19T11:54:32;3.63;;;0.65;;
71963;SDS011;59834;52.124;5.422;2023-05-19T11:57:02;1.90;;;0.60;;
71963;SDS011;59834;52.124;5.422;2023-05-19T11:59:32;4.93;;;1.40;;
71963;SDS011;59834;52.124;5.422;2023-05-19T12:02:02;3.70;;;0.60;;
71963;SDS011;59834;52.124;5.422;2023-05-19T12:04:42;5.33;;;0.60;;
71963;SDS011;59834;52.124;5.422;2023-05-19T12:07:12;3.42;;;0.88;;
71963;SDS011;59834;52.124;5.422;2023-05-19T12:09:46;2.80;;;0.50;;
71963;SDS011;59834;52.124;5.422;2023-05-19T12:12:20;9.38;;;0.95;;
71963;SDS011;59834;52.124;5.422;2023-05-19T12:14:51;2.72;;;0.60;;
71963;SDS011;59834;52.124;5.422;2023-05-19T12:17:20;3.00;;;0.43;;
71963;SDS011;59834;52.124;5.422;2023-05-19T12:19:52;4.07;;;0.45;;
71963;SDS011;59834;52.124;5.422;2023-05-19T12:22:19;3.38;;;0.50;;
71963;SDS011;59834;52.124;5.422;2023-05-19T12:24:46;2.45;;;0.32;;
71963;SDS011;59834;52.124;5.422;2023-05-19T12:27:16;7.70;;;0.75;;
71963;SDS011;59834;52.124;5.422;2023-05-19T12:29:49;3.17;;;0.50;;
71963;SDS011;59834;52.124;5.422;2023-05-19T12:32:18;5.65;;;0.65;;
71963;SDS011;59834;52.124;5.422;2023-05-19T12:34:52;6.63;;;0.95;;
71963;SDS011;59834;52.124;5.422;2023-05-19T12:37:21;3.53;;;0.65;;
71963;SDS011;59834;52.124;5.422;2023-05-19T12:39:52;4.05;;;0.90;;
71963;SDS011;59834;52.124;5.422;2023-05-19T12:42:25;6.97;;;0.43;;
71963;SDS011;59834;52.124;5.422;2023-05-19T12:45:02;3.63;;;0.50;;
71963;SDS011;59834;52.124;5.422;2023-05-19T12:47:32;3.17;;;1.10;;
71963;SDS011;59834;52.124;5.422;2023-05-19T12:52:31;5.97;;;1.50;;
71963;SDS011;59834;52.124;5.422;2023-05-19T12:55:01;4.77;;;1.50;;
71963;SDS011;59834;52.124;5.422;2023-05-19T12:57:34;2.47;;;0.40;;
71963;SDS011;59834;52.124;5.422;2023-05-19T13:00:03;3.30;;;0.40;;
71963;SDS011;59834;52.124;5.422;2023-05-19T13:05:27;5.43;;;0.50;;
71963;SDS011;59834;52.124;5.422;2023-05-19T13:08:04;6.53;;;1.07;;
71963;SDS011;59834;52.124;5.422;2023-05-19T13:10:36;5.47;;;0.73;;
71963;SDS011;59834;52.124;5.422;2023-05-19T13:13:05;3.28;;;0.77;;
71963;SDS011;59834;52.124;5.422;2023-05-19T13:15:33;3.97;;;1.00;;
71963;SDS011;59834;52.124;5.422;2023-05-19T13:18:04;4.93;;;1.05;;
71963;SDS011;59834;52.124;5.422;2023-05-19T13:20:35;6.40;;;1.27;;
71963;SDS011;59834;52.124;5.422;2023-05-19T13:23:03;4.80;;;0.88;;
71963;SDS011;59834;52.124;5.422;2023-05-19T13:25:34;4.38;;;1.05;;
71963;SDS011;59834;52.124;5.422;2023-05-19T13:28:01;4.93;;;1.35;;
71963;SDS011;59834;52.124;5.422;2023-05-19T13:30:36;5.45;;;0.80;;
71963;SDS011;59834;52.124;5.422;2023-05-19T13:33:05;5.63;;;0.70;;
71963;SDS011;59834;52.124;5.422;2023-05-19T13:35:33;4.47;;;0.70;;
71963;SDS011;59834;52.124;5.422;2023-05-19T13:38:05;2.88;;;0.70;;
71963;SDS011;59834;52.124;5.422;2023-05-19T13:40:36;3.72;;;0.68;;
71963;SDS011;59834;52.124;5.422;2023-05-19T13:43:03;4.13;;;0.77;;
71963;SDS011;59834;52.124;5.422;2023-05-19T13:45:30;2.67;;;0.77;;
71963;SDS011;59834;52.124;5.422;2023-05-19T13:47:57;3.25;;;0.80;;
71963;SDS011;59834;52.124;5.422;2023-05-19T13:50:24;1.45;;;0.35;;
71963;SDS011;59834;52.124;5.422;2023-05-19T13:52:51;1.98;;;0.60;;
71963;SDS011;59834;52.124;5.422;2023-05-19T13:55:18;4.68;;;0.80;;
71963;SDS011;59834;52.124;5.422;2023-05-19T13:57:44;8.03;;;0.87;;
71963;SDS011;59834;52.124;5.422;2023-05-19T14:00:11;8.68;;;0.77;;
71963;SDS011;59834;52.124;5.422;2023-05-19T14:02:42;5.45;;;1.00;;
71963;SDS011;59834;52.124;5.422;2023-05-19T14:05:09;2.97;;;0.75;;
71963;SDS011;59834;52.124;5.422;2023-05-19T14:07:36;3.88;;;0.65;;
71963;SDS011;59834;52.124;5.422;2023-05-19T14:10:04;7.17;;;1.53;;
71963;SDS011;59834;52.124;5.422;2023-05-19T14:12:34;4.82;;;0.75;;
71963;SDS011;59834;52.124;5.422;2023-05-19T14:15:23;3.20;;;0.68;;
71963;SDS011;59834;52.124;5.422;2023-05-19T14:17:50;3.45;;;0.68;;
71963;SDS011;59834;52.124;5.422;2023-05-19T14:20:18;2.65;;;0.50;;
71963;SDS011;59834;52.124;5.422;2023-05-19T14:22:47;3.17;;;0.60;;
71963;SDS011;59834;52.124;5.422;2023-05-19T14:25:21;3.78;;;0.50;;
71963;SDS011;59834;52.124;5.422;2023-05-19T14:27:47;3.63;;;0.50;;
71963;SDS011;59834;52.124;5.422;2023-05-19T14:30:14;3.05;;;0.95;;
71963;SDS011;59834;52.124;5.422;2023-05-19T14:32:41;5.65;;;0.60;;
71963;SDS011;59834;52.124;5.422;2023-05-19T14:35:08;6.50;;;0.70;;
71963;SDS011;59834;52.124;5.422;2023-05-19T14:37:36;3.92;;;0.52;;
71963;SDS011;59834;52.124;5.422;2023-05-19T14:40:07;2.03;;;0.45;;
71963;SDS011;59834;52.124;5.422;2023-05-19T14:42:34;3.72;;;1.10;;
71963;SDS011;59834;52.124;5.422;2023-05-19T14:45:01;5.45;;;0.45;;
71963;SDS011;59834;52.124;5.422;2023-05-19T14:47:29;2.53;;;1.00;;
71963;SDS011;59834;52.124;5.422;2023-05-19T14:49:55;3.25;;;0.77;;
71963;SDS011;59834;52.124;5.422;2023-05-19T14:52:23;4.43;;;0.90;;
71963;SDS011;59834;52.124;5.422;2023-05-19T14:54:52;3.88;;;0.75;;
71963;SDS011;59834;52.124;5.422;2023-05-19T14:57:21;4.85;;;0.50;;
71963;SDS011;59834;52.124;5.422;2023-05-19T14:59:49;4.83;;;0.57;;
71963;SDS011;59834;52.124;5.422;2023-05-19T15:02:17;4.93;;;0.50;;
71963;SDS011;59834;52.124;5.422;2023-05-19T15:04:45;2.85;;;0.50;;
71963;SDS011;59834;52.124;5.422;2023-05-19T15:07:16;4.55;;;0.60;;
71963;SDS011;59834;52.124;5.422;2023-05-19T15:09:44;3.53;;;0.57;;
71963;SDS011;59834;52.124;5.422;2023-05-19T15:12:11;3.77;;;0.50;;
71963;SDS011;59834;52.124;5.422;2023-05-19T15:14:41;2.67;;;0.45;;
71963;SDS011;59834;52.124;5.422;2023-05-19T15:17:09;2.92;;;0.50;;
71963;SDS011;59834;52.124;5.422;2023-05-19T15:19:38;3.90;;;0.45;;
71963;SDS011;59834;52.124;5.422;2023-05-19T15:22:08;4.50;;;0.60;;
71963;SDS011;59834;52.124;5.422;2023-05-19T15:24:34;2.23;;;0.50;;